createdAt,value
2019-05-06T00:01:41.136Z,100930.86
2019-05-06T00:06:46.931Z,100923.04
2019-05-06T00:11:54.377Z,100940.55
2019-05-06T00:17:00.489Z,100943.34
2019-05-06T00:22:06.383Z,100946.66
2019-05-06T00:27:34.111Z,100936.42
2019-05-06T00:32:39.300Z,100927.55
2019-05-06T00:37:45.078Z,100913.09
2019-05-06T00:42:54.185Z,100904.08
2019-05-06T00:48:00.100Z,100886.38
2019-05-06T00:53:07.499Z,100887.64
2019-05-06T00:58:14.215Z,100875.52
2019-05-06T01:03:20.161Z,100862.66
2019-05-06T01:08:26.028Z,100841.06
2019-05-06T01:13:36.423Z,100833.60
2019-05-06T01:18:43.535Z,100831.15
2019-05-06T01:23:50.210Z,100809.63
2019-05-06T01:28:55.972Z,100797.71
2019-05-06T01:34:01.757Z,100789.27
2019-05-06T01:39:10.216Z,100764.64
2019-05-06T01:44:15.954Z,100722.45
2019-05-06T01:49:21.706Z,100669.30
2019-05-06T01:54:27.476Z,100659.32
2019-05-06T01:59:34.083Z,100620.26
2019-05-06T02:04:41.068Z,100583.27
2019-05-06T02:09:46.763Z,100585.15
2019-05-06T02:14:54.295Z,100573.44
2019-05-06T02:19:59.902Z,100546.78
2019-05-06T02:25:08.737Z,100524.70
2019-05-06T02:30:28.538Z,100510.83
2019-05-06T02:35:35.862Z,100449.31
2019-05-06T02:40:42.755Z,100360.80
2019-05-06T02:45:48.575Z,100311.19
2019-05-06T02:50:56.128Z,100239.53
2019-05-06T02:56:04.093Z,100185.17
2019-05-06T03:01:09.270Z,100134.78
2019-05-06T03:06:15.072Z,100074.78
2019-05-06T03:11:23.749Z,100019.77
2019-05-06T03:16:28.763Z,99992.08
2019-05-06T03:21:44.810Z,99968.25
2019-05-06T03:26:53.410Z,99946.56
2019-05-06T03:31:58.762Z,99930.80
2019-05-06T03:37:07.530Z,99940.16
2019-05-06T03:42:15.924Z,99937.07
2019-05-06T03:47:23.463Z,99942.80
2019-05-06T03:52:30.382Z,99934.18
2019-05-06T03:57:37.748Z,99934.91
2019-05-06T04:02:44.535Z,99922.94
2019-05-06T04:07:53.034Z,99905.19
2019-05-06T04:13:03.924Z,99916.14
2019-05-06T04:18:12.395Z,99927.79
2019-05-06T04:23:29.217Z,99919.23
2019-05-06T04:28:36.827Z,99954.77
2019-05-06T04:33:55.437Z,99993.41
2019-05-06T04:38:50.112Z,100055.20
2019-05-06T04:43:56.903Z,100084.23
2019-05-06T04:49:04.040Z,100067.06
2019-05-06T04:54:13.040Z,100086.14
2019-05-06T04:59:17.387Z,100107.72
2019-05-06T05:04:31.677Z,100140.02
2019-05-06T05:09:32.604Z,100170.75
2019-05-06T05:14:56.791Z,100162.03
2019-05-06T05:20:02.886Z,100186.12
2019-05-06T05:25:08.860Z,100218.80
2019-05-06T05:30:14.835Z,100243.52
2019-05-06T05:35:22.604Z,100255.95
2019-05-06T05:40:28.170Z,100295.95
2019-05-06T05:45:34.089Z,100321.00
2019-05-06T05:50:42.051Z,100387.20
2019-05-06T05:55:47.851Z,100433.83
2019-05-06T06:00:53.646Z,100461.19
2019-05-06T06:05:59.817Z,100512.94
2019-05-06T06:11:07.545Z,100543.82
2019-05-06T06:16:32.854Z,100584.94
2019-05-06T06:21:43.350Z,100656.05
2019-05-06T06:26:49.223Z,100704.17
2019-05-06T06:32:05.738Z,100711.80
2019-05-06T06:37:33.033Z,100763.07
2019-05-06T06:42:39.289Z,100817.40
2019-05-06T06:47:45.233Z,100888.17
2019-05-06T06:52:52.479Z,100942.92
2019-05-06T06:58:02.544Z,100968.27
2019-05-06T07:03:12.427Z,101005.50
2019-05-06T07:08:32.142Z,101023.41
2019-05-06T07:13:25.816Z,101025.03
2019-05-06T07:18:33.189Z,101035.38
2019-05-06T07:23:39.448Z,101050.80
2019-05-06T07:28:45.235Z,101062.70
2019-05-06T07:33:52.213Z,101047.82
2019-05-06T07:38:58.112Z,101059.81
2019-05-06T07:44:08.187Z,101062.94
2019-05-06T07:49:13.819Z,101067.18
2019-05-06T07:54:21.880Z,101059.86
2019-05-06T07:59:27.360Z,101042.56
2019-05-06T08:04:33.224Z,101055.30
2019-05-06T08:09:42.161Z,101062.97
2019-05-06T08:14:47.720Z,101078.63
2019-05-06T08:19:53.600Z,101076.78
2019-05-06T08:24:59.650Z,101090.06
2019-05-06T08:30:08.411Z,101082.45
2019-05-06T08:35:16.591Z,101088.63
2019-05-06T08:40:26.281Z,101095.59
2019-05-06T08:45:32.488Z,101094.09
2019-05-06T08:50:55.332Z,101100.17
2019-05-06T08:56:02.732Z,101095.40
2019-05-06T09:01:12.412Z,101100.16
2019-05-06T09:06:29.749Z,101090.94
2019-05-06T09:11:25.893Z,101097.43
2019-05-06T09:16:33.081Z,101092.30
2019-05-06T09:21:42.467Z,101088.58
2019-05-06T09:26:52.258Z,101098.98
2019-05-06T09:32:02.512Z,101088.27
2019-05-06T09:37:16.506Z,101076.61
2019-05-06T09:42:23.469Z,101077.91
2019-05-06T09:47:42.220Z,101080.09
2019-05-06T09:52:47.485Z,101081.09
2019-05-06T09:58:03.163Z,101088.94
2019-05-06T10:03:08.617Z,101075.42
2019-05-06T10:08:14.417Z,101083.14
2019-05-06T10:13:21.691Z,101095.31
2019-05-06T10:18:27.893Z,101080.93
2019-05-06T10:23:33.766Z,101083.23
2019-05-06T10:28:44.326Z,101070.25
2019-05-06T10:34:08.318Z,101086.62
2019-05-06T10:39:16.974Z,101074.65
2019-05-06T10:44:34.485Z,101085.08
2019-05-06T10:49:42.043Z,101079.73
2019-05-06T10:54:47.739Z,101082.58
2019-05-06T10:59:53.655Z,101082.44
2019-05-06T11:04:59.571Z,101078.44
2019-05-06T11:10:06.820Z,101071.09
2019-05-06T11:15:12.904Z,101076.03
2019-05-06T11:20:20.531Z,101063.23
2019-05-06T11:25:26.341Z,101066.28
2019-05-06T11:30:42.373Z,101059.34
2019-05-06T11:35:52.818Z,101054.53
2019-05-06T11:40:58.884Z,101067.94
2019-05-06T11:46:04.825Z,101053.45
2019-05-06T11:51:12.862Z,101054.93
2019-05-06T11:56:19.881Z,101039.39
2019-05-06T12:01:32.630Z,101054.23
2019-05-06T12:06:37.937Z,101047.78
2019-05-06T12:11:43.811Z,101040.62
2019-05-06T12:16:49.688Z,101035.53
2019-05-06T12:21:55.550Z,101053.09
2019-05-06T12:27:03.240Z,101043.28
2019-05-06T12:32:16.293Z,101048.57
2019-05-06T12:37:23.657Z,101038.43
2019-05-06T12:42:33.178Z,101041.33
2019-05-06T12:47:42.537Z,101038.48
2019-05-06T12:52:47.664Z,101022.52
2019-05-06T12:57:53.756Z,101018.05
2019-05-06T13:02:59.552Z,101032.51
2019-05-06T13:08:06.544Z,101007.95
2019-05-06T13:13:12.892Z,101016.25
2019-05-06T13:18:18.718Z,101018.11
2019-05-06T13:23:28.920Z,101013.39
2019-05-06T13:28:36.344Z,101013.08
2019-05-06T13:33:46.911Z,101021.61
2019-05-06T13:39:09.521Z,101014.83
2019-05-06T13:44:03.693Z,101006.75
2019-05-06T13:49:13.340Z,101007.66
2019-05-06T13:54:18.778Z,101005.12
2019-05-06T13:59:24.590Z,101001.77
2019-05-06T14:04:32.662Z,100996.33
2019-05-06T14:09:40.203Z,100997.07
2019-05-06T14:14:45.575Z,101002.27
2019-05-06T14:19:53.352Z,100994.46
2019-05-06T14:25:00.494Z,100983.56
2019-05-06T14:30:26.428Z,100989.39
2019-05-06T14:35:32.585Z,100998.23
2019-05-06T14:40:56.770Z,101005.06
2019-05-06T14:46:02.893Z,101004.17
2019-05-06T14:51:08.761Z,101006.80
2019-05-06T14:56:25.394Z,101007.94
2019-05-06T15:01:33.471Z,101013.88
2019-05-06T15:06:39.473Z,101008.69
2019-05-06T15:11:45.255Z,101024.66
2019-05-06T15:16:52.773Z,101029.34
2019-05-06T15:22:02.197Z,101021.98
2019-05-06T15:27:07.717Z,101028.99
2019-05-06T15:32:19.181Z,101009.30
2019-05-06T15:37:43.105Z,100980.26
2019-05-06T15:42:48.855Z,100962.78
2019-05-06T15:47:56.248Z,100960.06
2019-05-06T15:53:02.235Z,100973.48
2019-05-06T15:58:08.096Z,100957.61
2019-05-06T16:03:14.079Z,100978.18
2019-05-06T16:08:19.870Z,101005.42
2019-05-06T16:13:25.545Z,101017.78
2019-05-06T16:18:32.744Z,101010.84
2019-05-06T16:23:44.051Z,101010.58
2019-05-06T16:28:49.981Z,101015.28
2019-05-06T16:33:55.654Z,101011.44
2019-05-06T16:39:03.583Z,101035.13
2019-05-06T16:44:09.840Z,101010.11
2019-05-06T16:49:15.609Z,101019.45
2019-05-06T16:54:21.487Z,101017.67
2019-05-06T16:59:27.363Z,101028.17
2019-05-06T17:04:34.767Z,101034.30
2019-05-06T17:09:40.536Z,101024.75
2019-05-06T17:14:46.175Z,101029.38
2019-05-06T17:19:52.904Z,101023.23
2019-05-06T17:25:02.425Z,101022.30
2019-05-06T17:30:12.732Z,101012.97
2019-05-06T17:35:18.947Z,101003.97
2019-05-06T17:40:24.768Z,101007.97
2019-05-06T17:45:43.104Z,101004.61
2019-05-06T17:51:06.517Z,101003.77
2019-05-06T17:56:13.007Z,100996.38
2019-05-06T18:01:23.263Z,100992.32
2019-05-06T18:06:28.980Z,100991.15
2019-05-06T18:11:34.753Z,100981.44
2019-05-06T18:16:42.741Z,101001.67
2019-05-06T18:21:48.709Z,101013.78
2019-05-06T18:26:54.613Z,101018.67
2019-05-06T18:32:00.558Z,101023.59
2019-05-06T18:37:06.558Z,101026.45
2019-05-06T18:42:19.580Z,101034.08
2019-05-06T18:47:20.141Z,101034.91
2019-05-06T18:52:26.083Z,101048.98
2019-05-06T18:57:32.785Z,101054.28
2019-05-06T19:02:39.101Z,101054.78
2019-05-06T19:07:46.783Z,101043.44
2019-05-06T19:12:52.908Z,101039.80
2019-05-06T19:17:58.540Z,101030.89
2019-05-06T19:23:04.293Z,101034.05
2019-05-06T19:28:12.085Z,101020.09
2019-05-06T19:33:17.679Z,101006.45
2019-05-06T19:38:24.473Z,100976.41
2019-05-06T19:43:32.838Z,100958.41
2019-05-06T19:48:39.100Z,100925.44
2019-05-06T19:53:44.935Z,100938.40
2019-05-06T19:58:52.570Z,100924.17
2019-05-06T20:03:58.118Z,100874.56
2019-05-06T20:09:18.971Z,100783.05
2019-05-06T20:14:24.666Z,100700.73
2019-05-06T20:19:33.327Z,100646.89
2019-05-06T20:24:37.866Z,100550.27
2019-05-06T20:29:45.302Z,100550.27
2019-05-06T20:34:51.160Z,100488.55
2019-05-06T20:39:57.352Z,100430.70
2019-05-06T20:45:08.950Z,100374.23
2019-05-06T20:50:22.548Z,100333.86
2019-05-06T20:55:35.304Z,100189.39
2019-05-06T21:00:39.454Z,100145.73
2019-05-06T21:05:45.261Z,100145.73
2019-05-06T21:10:52.899Z,100120.14
2019-05-06T21:15:58.769Z,100076.52
2019-05-06T21:21:04.657Z,100019.23
2019-05-06T21:26:13.501Z,99919.83
2019-05-06T21:31:18.884Z,99919.83
2019-05-06T21:36:24.655Z,99890.98
2019-05-06T21:41:32.715Z,99852.50
2019-05-06T21:46:39.873Z,99858.80
2019-05-06T21:51:50.128Z,99847.56
2019-05-06T21:56:57.556Z,99834.80
2019-05-06T22:02:06.546Z,99796.19
2019-05-06T22:07:12.774Z,99812.47
2019-05-06T22:12:18.850Z,99812.47
2019-05-06T22:17:24.686Z,99821.95
2019-05-06T22:22:42.599Z,99827.72
2019-05-06T22:27:48.385Z,99824.61
2019-05-06T22:32:54.033Z,99844.36
2019-05-06T22:37:59.536Z,99838.91
2019-05-06T22:43:05.143Z,99829.16
2019-05-06T22:48:12.085Z,99812.59
2019-05-06T22:53:17.800Z,99811.73
2019-05-06T22:58:23.310Z,99799.98
2019-05-06T23:03:31.698Z,99792.05
2019-05-06T23:08:37.832Z,99765.69
2019-05-06T23:13:44.108Z,99755.95
2019-05-06T23:18:49.950Z,99721.13
2019-05-06T23:23:55.786Z,99706.55
2019-05-06T23:29:02.434Z,99690.51
2019-05-06T23:34:08.208Z,99646.41
2019-05-06T23:39:58.010Z,99630.50
2019-05-06T23:45:40.251Z,99576.14
2019-05-06T23:51:22.392Z,99543.33
2019-05-06T23:56:43.256Z,99478.15
